sensor_id;sensor_type;location;lat;lon;timestamp;P1;durP1;ratioP1;P2;durP2;ratioP2
19946;SDS011;10135;50.702;7.276;2024-01-10T06:02:33;12.33;;;6.43;;
19946;SDS011;10135;50.702;7.276;2024-01-10T06:04:34;12.07;;;6.60;;
19946;SDS011;10135;50.702;7.276;2024-01-10T06:06:34;13.17;;;5.97;;
19946;SDS011;10135;50.702;7.276;2024-01-10T06:08:35;14.30;;;6.63;;
19946;SDS011;10135;50.702;7.276;2024-01-10T06:10:35;12.00;;;6.07;;
19946;SDS011;10135;50.702;7.276;2024-01-10T06:12:36;12.40;;;6.50;;
19946;SDS011;10135;50.702;7.276;2024-01-10T06:14:38;14.27;;;6.50;;
19946;SDS011;10135;50.702;7.276;2024-01-10T06:16:38;13.20;;;6.27;;
19946;SDS011;10135;50.702;7.276;2024-01-10T06:18:39;15.40;;;6.60;;
19946;SDS011;10135;50.702;7.276;2024-01-10T06:20:40;12.40;;;6.47;;
19946;SDS011;10135;50.702;7.276;2024-01-10T06:22:40;11.23;;;6.80;;
19946;SDS011;10135;50.702;7.276;2024-01-10T06:24:42;11.93;;;6.37;;
19946;SDS011;10135;50.702;7.276;2024-01-10T06:26:43;12.63;;;6.70;;
19946;SDS011;10135;50.702;7.276;2024-01-10T06:28:44;13.57;;;6.73;;
19946;SDS011;10135;50.702;7.276;2024-01-10T06:30:44;12.00;;;6.60;;
19946;SDS011;10135;50.702;7.276;2024-01-10T06:32:45;15.60;;;7.07;;
19946;SDS011;10135;50.702;7.276;2024-01-10T06:34:46;11.67;;;6.83;;
19946;SDS011;10135;50.702;7.276;2024-01-10T06:36:46;14.53;;;6.53;;
19946;SDS011;10135;50.702;7.276;2024-01-10T06:38:47;13.73;;;7.07;;
19946;SDS011;10135;50.702;7.276;2024-01-10T06:40:48;12.90;;;6.73;;
19946;SDS011;10135;50.702;7.276;2024-01-10T06:42:49;13.17;;;7.13;;
19946;SDS011;10135;50.702;7.276;2024-01-10T06:44:49;12.53;;;6.30;;
19946;SDS011;10135;50.702;7.276;2024-01-10T06:46:50;17.93;;;7.20;;
19946;SDS011;10135;50.702;7.276;2024-01-10T06:48:51;14.47;;;6.90;;
19946;SDS011;10135;50.702;7.276;2024-01-10T06:50:52;12.70;;;6.80;;
19946;SDS011;10135;50.702;7.276;2024-01-10T06:52:52;11.93;;;6.57;;
19946;SDS011;10135;50.702;7.276;2024-01-10T06:54:53;14.60;;;6.67;;
19946;SDS011;10135;50.702;7.276;2024-01-10T06:56:54;12.87;;;6.90;;
19946;SDS011;10135;50.702;7.276;2024-01-10T06:58:55;14.27;;;7.00;;
19946;SDS011;10135;50.702;7.276;2024-01-10T07:00:55;15.00;;;6.87;;
19946;SDS011;10135;50.702;7.276;2024-01-10T07:02:56;16.00;;;7.53;;
19946;SDS011;10135;50.702;7.276;2024-01-10T07:04:56;13.13;;;7.07;;
19946;SDS011;10135;50.702;7.276;2024-01-10T07:06:57;14.13;;;8.03;;
19946;SDS011;10135;50.702;7.276;2024-01-10T07:08:58;14.37;;;7.43;;
19946;SDS011;10135;50.702;7.276;2024-01-10T07:10:59;15.90;;;7.33;;
19946;SDS011;10135;50.702;7.276;2024-01-10T07:12:59;16.67;;;8.17;;
19946;SDS011;10135;50.702;7.276;2024-01-10T07:15:04;20.57;;;8.33;;
19946;SDS011;10135;50.702;7.276;2024-01-10T07:17:06;14.87;;;7.83;;
19946;SDS011;10135;50.702;7.276;2024-01-10T07:19:07;16.33;;;8.37;;
19946;SDS011;10135;50.702;7.276;2024-01-10T07:21:09;18.27;;;8.63;;
19946;SDS011;10135;50.702;7.276;2024-01-10T07:23:10;17.97;;;8.30;;
19946;SDS011;10135;50.702;7.276;2024-01-10T07:25:11;17.47;;;8.57;;
19946;SDS011;10135;50.702;7.276;2024-01-10T07:27:14;18.17;;;7.60;;
19946;SDS011;10135;50.702;7.276;2024-01-10T07:29:14;15.23;;;8.27;;
19946;SDS011;10135;50.702;7.276;2024-01-10T07:31:15;17.37;;;8.40;;
19946;SDS011;10135;50.702;7.276;2024-01-10T07:33:16;16.90;;;8.13;;
19946;SDS011;10135;50.702;7.276;2024-01-10T07:35:16;14.67;;;7.90;;
19946;SDS011;10135;50.702;7.276;2024-01-10T07:37:17;15.03;;;8.33;;
19946;SDS011;10135;50.702;7.276;2024-01-10T07:39:22;18.57;;;8.63;;
19946;SDS011;10135;50.702;7.276;2024-01-10T07:41:22;20.53;;;8.43;;
19946;SDS011;10135;50.702;7.276;2024-01-10T07:43:23;17.47;;;8.57;;
19946;SDS011;10135;50.702;7.276;2024-01-10T07:45:24;19.43;;;9.63;;
19946;SDS011;10135;50.702;7.276;2024-01-10T07:47:25;17.40;;;8.50;;
19946;SDS011;10135;50.702;7.276;2024-01-10T07:49:25;21.53;;;8.93;;
19946;SDS011;10135;50.702;7.276;2024-01-10T07:51:26;18.83;;;9.13;;
19946;SDS011;10135;50.702;7.276;2024-01-10T07:53:27;15.80;;;8.30;;
19946;SDS011;10135;50.702;7.276;2024-01-10T07:55:27;18.50;;;8.57;;
19946;SDS011;10135;50.702;7.276;2024-01-10T07:57:31;16.30;;;8.13;;
19946;SDS011;10135;50.702;7.276;2024-01-10T07:59:32;17.27;;;8.90;;
19946;SDS011;10135;50.702;7.276;2024-01-10T08:01:33;19.93;;;9.13;;
19946;SDS011;10135;50.702;7.276;2024-01-10T08:03:33;19.60;;;9.20;;
19946;SDS011;10135;50.702;7.276;2024-01-10T08:05:35;22.73;;;8.53;;
19946;SDS011;10135;50.702;7.276;2024-01-10T08:07:36;20.00;;;9.07;;
19946;SDS011;10135;50.702;7.276;2024-01-10T08:09:38;20.43;;;9.57;;
19946;SDS011;10135;50.702;7.276;2024-01-10T08:11:39;21.07;;;9.30;;
19946;SDS011;10135;50.702;7.276;2024-01-10T08:13:40;22.10;;;9.10;;
19946;SDS011;10135;50.702;7.276;2024-01-10T08:15:40;16.77;;;8.83;;
19946;SDS011;10135;50.702;7.276;2024-01-10T08:17:41;21.70;;;9.37;;
19946;SDS011;10135;50.702;7.276;2024-01-10T08:19:43;19.30;;;8.57;;
19946;SDS011;10135;50.702;7.276;2024-01-10T08:21:43;16.10;;;8.60;;
19946;SDS011;10135;50.702;7.276;2024-01-10T08:23:44;18.37;;;9.00;;
19946;SDS011;10135;50.702;7.276;2024-01-10T08:25:45;19.87;;;9.20;;
19946;SDS011;10135;50.702;7.276;2024-01-10T08:27:45;18.27;;;8.80;;
19946;SDS011;10135;50.702;7.276;2024-01-10T08:29:46;21.20;;;9.20;;
19946;SDS011;10135;50.702;7.276;2024-01-10T08:31:47;18.83;;;8.90;;
19946;SDS011;10135;50.702;7.276;2024-01-10T08:33:49;17.93;;;8.57;;
19946;SDS011;10135;50.702;7.276;2024-01-10T08:35:50;20.47;;;9.37;;
19946;SDS011;10135;50.702;7.276;2024-01-10T08:37:51;21.27;;;9.37;;
19946;SDS011;10135;50.702;7.276;2024-01-10T08:39:51;17.77;;;8.90;;
19946;SDS011;10135;50.702;7.276;2024-01-10T08:41:52;18.20;;;9.27;;
19946;SDS011;10135;50.702;7.276;2024-01-10T08:43:52;20.43;;;9.37;;
19946;SDS011;10135;50.702;7.276;2024-01-10T08:45:53;17.40;;;8.83;;
19946;SDS011;10135;50.702;7.276;2024-01-10T08:47:53;18.43;;;8.97;;
19946;SDS011;10135;50.702;7.276;2024-01-10T08:49:55;20.77;;;9.00;;
19946;SDS011;10135;50.702;7.276;2024-01-10T08:51:55;17.97;;;9.23;;
19946;SDS011;10135;50.702;7.276;2024-01-10T08:53:56;23.20;;;9.00;;
19946;SDS011;10135;50.702;7.276;2024-01-10T08:55:57;18.30;;;8.93;;
19946;SDS011;10135;50.702;7.276;2024-01-10T08:57:58;17.07;;;8.97;;
19946;SDS011;10135;50.702;7.276;2024-01-10T08:59:58;21.93;;;9.50;;
19946;SDS011;10135;50.702;7.276;2024-01-10T09:01:59;17.60;;;8.70;;
19946;SDS011;10135;50.702;7.276;2024-01-10T09:04:00;21.23;;;9.57;;
19946;SDS011;10135;50.702;7.276;2024-01-10T09:06:01;23.77;;;9.33;;
19946;SDS011;10135;50.702;7.276;2024-01-10T09:08:04;18.23;;;8.73;;
19946;SDS011;10135;50.702;7.276;2024-01-10T09:10:05;19.10;;;8.90;;
19946;SDS011;10135;50.702;7.276;2024-01-10T09:12:07;19.90;;;9.07;;
19946;SDS011;10135;50.702;7.276;2024-01-10T09:14:08;20.63;;;9.40;;
19946;SDS011;10135;50.702;7.276;2024-01-10T09:16:09;18.93;;;9.40;;
19946;SDS011;10135;50.702;7.276;2024-01-10T09:18:09;21.00;;;9.60;;
19946;SDS011;10135;50.702;7.276;2024-01-10T09:20:11;22.70;;;9.77;;
19946;SDS011;10135;50.702;7.276;2024-01-10T09:22:12;18.77;;;9.10;;
19946;SDS011;10135;50.702;7.276;2024-01-10T09:24:13;18.87;;;9.43;;
19946;SDS011;10135;50.702;7.276;2024-01-10T09:26:14;21.37;;;9.57;;
19946;SDS011;10135;50.702;7.276;2024-01-10T09:28:15;20.70;;;9.80;;
19946;SDS011;10135;50.702;7.276;2024-01-10T09:30:15;17.40;;;8.97;;
19946;SDS011;10135;50.702;7.276;2024-01-10T09:32:18;26.50;;;10.53;;
19946;SDS011;10135;50.702;7.276;2024-01-10T09:34:18;19.30;;;9.37;;
19946;SDS011;10135;50.702;7.276;2024-01-10T09:36:19;23.13;;;10.30;;
19946;SDS011;10135;50.702;7.276;2024-01-10T09:38:20;22.13;;;10.30;;
19946;SDS011;10135;50.702;7.276;2024-01-10T09:40:20;22.50;;;10.70;;
19946;SDS011;10135;50.702;7.276;2024-01-10T09:42:22;22.63;;;10.83;;
19946;SDS011;10135;50.702;7.276;2024-01-10T09:44:25;20.33;;;9.77;;
19946;SDS011;10135;50.702;7.276;2024-01-10T09:46:26;25.43;;;10.73;;
19946;SDS011;10135;50.702;7.276;2024-01-10T09:48:30;25.13;;;9.87;;
19946;SDS011;10135;50.702;7.276;2024-01-10T09:50:31;20.30;;;10.20;;
19946;SDS011;10135;50.702;7.276;2024-01-10T09:52:35;19.77;;;10.33;;
19946;SDS011;10135;50.702;7.276;2024-01-10T09:54:53;21.47;;;10.87;;
19946;SDS011;10135;50.702;7.276;2024-01-10T09:56:58;24.97;;;10.90;;
19946;SDS011;10135;50.702;7.276;2024-01-10T09:58:59;22.97;;;10.63;;
19946;SDS011;10135;50.702;7.276;2024-01-10T10:01:04;24.37;;;10.53;;
19946;SDS011;10135;50.702;7.276;2024-01-10T10:03:10;25.67;;;10.97;;
19946;SDS011;10135;50.702;7.276;2024-01-10T10:05:15;21.90;;;10.63;;
19946;SDS011;10135;50.702;7.276;2024-01-10T10:07:17;23.97;;;10.27;;
19946;SDS011;10135;50.702;7.276;2024-01-10T10:09:18;21.73;;;10.47;;
19946;SDS011;10135;50.702;7.276;2024-01-10T10:11:19;22.63;;;10.63;;
19946;SDS011;10135;50.702;7.276;2024-01-10T10:13:26;20.87;;;10.13;;
19946;SDS011;10135;50.702;7.276;2024-01-10T10:15:30;22.20;;;10.37;;
19946;SDS011;10135;50.702;7.276;2024-01-10T10:17:30;20.03;;;10.30;;
19946;SDS011;10135;50.702;7.276;2024-01-10T10:19:31;23.93;;;10.93;;
19946;SDS011;10135;50.702;7.276;2024-01-10T10:21:32;24.00;;;10.53;;
19946;SDS011;10135;50.702;7.276;2024-01-10T10:23:34;23.37;;;10.23;;
19946;SDS011;10135;50.702;7.276;2024-01-10T10:25:36;22.73;;;10.40;;
19946;SDS011;10135;50.702;7.276;2024-01-10T10:27:42;23.63;;;11.40;;
19946;SDS011;10135;50.702;7.276;2024-01-10T10:29:43;21.13;;;10.83;;
19946;SDS011;10135;50.702;7.276;2024-01-10T10:31:46;26.80;;;11.27;;
19946;SDS011;10135;50.702;7.276;2024-01-10T10:33:49;20.77;;;10.30;;
19946;SDS011;10135;50.702;7.276;2024-01-10T10:35:51;22.97;;;11.03;;
19946;SDS011;10135;50.702;7.276;2024-01-10T10:37:52;25.57;;;10.73;;
19946;SDS011;10135;50.702;7.276;2024-01-10T10:39:53;20.73;;;10.23;;
19946;SDS011;10135;50.702;7.276;2024-01-10T10:41:53;24.43;;;10.43;;
19946;SDS011;10135;50.702;7.276;2024-01-10T10:43:57;24.53;;;10.80;;
19946;SDS011;10135;50.702;7.276;2024-01-10T10:45:58;25.00;;;11.10;;
19946;SDS011;10135;50.702;7.276;2024-01-10T10:48:02;29.40;;;11.27;;
19946;SDS011;10135;50.702;7.276;2024-01-10T10:50:04;26.00;;;10.60;;
19946;SDS011;10135;50.702;7.276;2024-01-10T10:52:07;21.97;;;10.77;;
19946;SDS011;10135;50.702;7.276;2024-01-10T10:54:08;21.67;;;10.30;;
19946;SDS011;10135;50.702;7.276;2024-01-10T10:56:11;25.03;;;11.40;;
19946;SDS011;10135;50.702;7.276;2024-01-10T10:58:12;25.87;;;11.77;;
19946;SDS011;10135;50.702;7.276;2024-01-10T11:00:15;25.23;;;11.03;;
19946;SDS011;10135;50.702;7.276;2024-01-10T11:02:21;24.77;;;10.93;;
19946;SDS011;10135;50.702;7.276;2024-01-10T11:04:24;22.80;;;11.50;;
19946;SDS011;10135;50.702;7.276;2024-01-10T11:06:26;27.70;;;11.10;;
19946;SDS011;10135;50.702;7.276;2024-01-10T11:08:28;28.07;;;11.03;;
19946;SDS011;10135;50.702;7.276;2024-01-10T11:10:35;23.07;;;11.73;;
19946;SDS011;10135;50.702;7.276;2024-01-10T11:20:13;25.40;;;11.30;;
19946;SDS011;10135;50.702;7.276;2024-01-10T11:22:53;28.77;;;11.67;;
19946;SDS011;10135;50.702;7.276;2024-01-10T11:25:15;27.57;;;12.47;;
19946;SDS011;10135;50.702;7.276;2024-01-10T11:27:17;26.20;;;12.40;;
19946;SDS011;10135;50.702;7.276;2024-01-10T11:29:18;27.70;;;11.23;;
19946;SDS011;10135;50.702;7.276;2024-01-10T11:31:27;28.40;;;14.20;;
19946;SDS011;10135;50.702;7.276;2024-01-10T11:33:33;24.83;;;11.57;;
19946;SDS011;10135;50.702;7.276;2024-01-10T11:35:40;25.47;;;11.90;;
19946;SDS011;10135;50.702;7.276;2024-01-10T11:37:44;24.53;;;11.60;;
19946;SDS011;10135;50.702;7.276;2024-01-10T11:39:46;23.90;;;11.90;;
19946;SDS011;10135;50.702;7.276;2024-01-10T11:41:46;23.53;;;11.43;;
19946;SDS011;10135;50.702;7.276;2024-01-10T11:46:09;24.40;;;11.33;;
19946;SDS011;10135;50.702;7.276;2024-01-10T11:48:12;24.03;;;11.60;;
19946;SDS011;10135;50.702;7.276;2024-01-10T11:50:14;23.03;;;11.10;;
19946;SDS011;10135;50.702;7.276;2024-01-10T11:52:21;24.57;;;11.63;;
19946;SDS011;10135;50.702;7.276;2024-01-10T11:54:42;25.17;;;11.40;;
19946;SDS011;10135;50.702;7.276;2024-01-10T11:56:45;24.50;;;11.40;;
19946;SDS011;10135;50.702;7.276;2024-01-10T11:59:19;23.70;;;10.93;;
19946;SDS011;10135;50.702;7.276;2024-01-10T12:01:16;23.93;;;11.43;;
19946;SDS011;10135;50.702;7.276;2024-01-10T12:03:17;24.30;;;11.27;;
19946;SDS011;10135;50.702;7.276;2024-01-10T12:05:20;22.43;;;10.90;;
19946;SDS011;10135;50.702;7.276;2024-01-10T12:07:20;24.73;;;11.63;;
19946;SDS011;10135;50.702;7.276;2024-01-10T12:09:21;23.13;;;11.53;;
19946;SDS011;10135;50.702;7.276;2024-01-10T12:11:24;24.17;;;11.37;;
19946;SDS011;10135;50.702;7.276;2024-01-10T12:13:25;21.03;;;10.73;;
19946;SDS011;10135;50.702;7.276;2024-01-10T12:15:26;23.03;;;11.30;;
19946;SDS011;10135;50.702;7.276;2024-01-10T12:17:27;23.00;;;10.67;;
19946;SDS011;10135;50.702;7.276;2024-01-10T12:19:29;24.93;;;12.10;;
19946;SDS011;10135;50.702;7.276;2024-01-10T12:21:30;23.57;;;11.07;;
19946;SDS011;10135;50.702;7.276;2024-01-10T12:23:30;21.53;;;10.70;;
19946;SDS011;10135;50.702;7.276;2024-01-10T12:25:32;24.43;;;11.03;;
19946;SDS011;10135;50.702;7.276;2024-01-10T12:27:32;22.80;;;10.90;;
19946;SDS011;10135;50.702;7.276;2024-01-10T12:29:33;24.80;;;11.73;;
19946;SDS011;10135;50.702;7.276;2024-01-10T12:31:33;24.30;;;10.57;;
19946;SDS011;10135;50.702;7.276;2024-01-10T12:33:38;22.47;;;11.13;;
19946;SDS011;10135;50.702;7.276;2024-01-10T12:35:42;22.93;;;10.80;;
19946;SDS011;10135;50.702;7.276;2024-01-10T12:37:43;21.07;;;10.43;;
19946;SDS011;10135;50.702;7.276;2024-01-10T12:39:57;25.97;;;10.77;;
19946;SDS011;10135;50.702;7.276;2024-01-10T12:41:57;20.97;;;10.93;;
19946;SDS011;10135;50.702;7.276;2024-01-10T12:43:59;26.30;;;11.17;;
19946;SDS011;10135;50.702;7.276;2024-01-10T12:46:04;23.30;;;10.93;;
19946;SDS011;10135;50.702;7.276;2024-01-10T12:48:15;24.30;;;10.90;;
19946;SDS011;10135;50.702;7.276;2024-01-10T12:50:17;22.20;;;10.10;;
19946;SDS011;10135;50.702;7.276;2024-01-10T12:52:17;23.20;;;11.13;;
19946;SDS011;10135;50.702;7.276;2024-01-10T12:54:21;23.47;;;10.57;;
19946;SDS011;10135;50.702;7.276;2024-01-10T12:56:22;25.60;;;11.40;;
19946;SDS011;10135;50.702;7.276;2024-01-10T12:58:23;20.23;;;10.50;;
19946;SDS011;10135;50.702;7.276;2024-01-10T13:00:23;23.37;;;10.50;;
19946;SDS011;10135;50.702;7.276;2024-01-10T13:02:24;22.77;;;11.33;;
19946;SDS011;10135;50.702;7.276;2024-01-10T13:04:25;23.63;;;11.47;;
19946;SDS011;10135;50.702;7.276;2024-01-10T13:06:25;20.00;;;10.57;;
19946;SDS011;10135;50.702;7.276;2024-01-10T13:08:26;26.33;;;10.67;;
19946;SDS011;10135;50.702;7.276;2024-01-10T13:10:27;22.33;;;10.60;;
19946;SDS011;10135;50.702;7.276;2024-01-10T13:12:27;20.43;;;9.87;;
19946;SDS011;10135;50.702;7.276;2024-01-10T13:14:28;21.77;;;10.93;;
19946;SDS011;10135;50.702;7.276;2024-01-10T13:16:31;21.27;;;10.93;;
19946;SDS011;10135;50.702;7.276;2024-01-10T13:18:33;21.20;;;10.50;;
19946;SDS011;10135;50.702;7.276;2024-01-10T13:20:33;20.33;;;10.50;;
19946;SDS011;10135;50.702;7.276;2024-01-10T13:22:34;22.17;;;10.60;;
19946;SDS011;10135;50.702;7.276;2024-01-10T13:24:34;19.97;;;10.27;;
19946;SDS011;10135;50.702;7.276;2024-01-10T13:26:35;24.77;;;10.30;;
19946;SDS011;10135;50.702;7.276;2024-01-10T13:28:36;25.57;;;10.40;;
19946;SDS011;10135;50.702;7.276;2024-01-10T13:30:36;21.03;;;10.07;;
19946;SDS011;10135;50.702;7.276;2024-01-10T13:32:37;22.10;;;10.17;;
19946;SDS011;10135;50.702;7.276;2024-01-10T13:34:38;20.17;;;10.70;;
19946;SDS011;10135;50.702;7.276;2024-01-10T13:36:38;20.90;;;10.30;;
19946;SDS011;10135;50.702;7.276;2024-01-10T13:38:39;18.53;;;10.13;;
19946;SDS011;10135;50.702;7.276;2024-01-10T13:40:40;20.33;;;9.80;;
19946;SDS011;10135;50.702;7.276;2024-01-10T13:42:44;19.57;;;9.40;;
19946;SDS011;10135;50.702;7.276;2024-01-10T13:44:45;17.57;;;9.07;;
19946;SDS011;10135;50.702;7.276;2024-01-10T13:46:46;24.47;;;10.37;;
19946;SDS011;10135;50.702;7.276;2024-01-10T13:48:49;22.43;;;10.17;;
19946;SDS011;10135;50.702;7.276;2024-01-10T13:50:50;21.47;;;10.03;;
19946;SDS011;10135;50.702;7.276;2024-01-10T13:52:51;19.80;;;9.73;;
19946;SDS011;10135;50.702;7.276;2024-01-10T13:54:51;20.83;;;9.20;;
19946;SDS011;10135;50.702;7.276;2024-01-10T13:56:52;21.30;;;9.53;;
19946;SDS011;10135;50.702;7.276;2024-01-10T13:58:52;21.00;;;10.53;;
19946;SDS011;10135;50.702;7.276;2024-01-10T14:00:53;19.93;;;10.03;;
19946;SDS011;10135;50.702;7.276;2024-01-10T14:02:54;24.17;;;9.60;;
19946;SDS011;10135;50.702;7.276;2024-01-10T14:04:58;20.87;;;9.90;;
19946;SDS011;10135;50.702;7.276;2024-01-10T14:06:59;22.77;;;10.20;;
19946;SDS011;10135;50.702;7.276;2024-01-10T14:08:59;21.20;;;9.63;;
19946;SDS011;10135;50.702;7.276;2024-01-10T14:11:00;20.13;;;10.23;;
19946;SDS011;10135;50.702;7.276;2024-01-10T14:13:01;21.60;;;10.07;;
19946;SDS011;10135;50.702;7.276;2024-01-10T14:15:03;24.30;;;10.10;;
19946;SDS011;10135;50.702;7.276;2024-01-10T14:17:05;23.27;;;10.30;;
19946;SDS011;10135;50.702;7.276;2024-01-10T14:19:06;24.10;;;10.60;;
19946;SDS011;10135;50.702;7.276;2024-01-10T14:21:07;21.67;;;9.97;;
19946;SDS011;10135;50.702;7.276;2024-01-10T14:23:08;22.57;;;10.43;;
19946;SDS011;10135;50.702;7.276;2024-01-10T14:25:08;23.70;;;10.37;;
19946;SDS011;10135;50.702;7.276;2024-01-10T14:27:09;22.43;;;9.80;;
19946;SDS011;10135;50.702;7.276;2024-01-10T14:29:10;23.97;;;10.20;;
19946;SDS011;10135;50.702;7.276;2024-01-10T14:31:11;22.00;;;10.40;;
19946;SDS011;10135;50.702;7.276;2024-01-10T14:33:13;23.20;;;10.70;;
19946;SDS011;10135;50.702;7.276;2024-01-10T14:35:14;25.13;;;11.43;;
19946;SDS011;10135;50.702;7.276;2024-01-10T14:37:15;24.60;;;10.77;;
19946;SDS011;10135;50.702;7.276;2024-01-10T14:39:15;20.13;;;9.93;;
19946;SDS011;10135;50.702;7.276;2024-01-10T14:41:16;20.60;;;10.40;;
19946;SDS011;10135;50.702;7.276;2024-01-10T14:43:17;21.53;;;10.33;;
19946;SDS011;10135;50.702;7.276;2024-01-10T14:45:17;22.57;;;10.13;;
19946;SDS011;10135;50.702;7.276;2024-01-10T14:47:20;21.17;;;10.03;;
19946;SDS011;10135;50.702;7.276;2024-01-10T14:49:21;19.80;;;10.40;;
19946;SDS011;10135;50.702;7.276;2024-01-10T14:51:22;25.10;;;10.67;;
19946;SDS011;10135;50.702;7.276;2024-01-10T14:53:22;22.23;;;10.43;;
19946;SDS011;10135;50.702;7.276;2024-01-10T14:55:24;25.30;;;11.60;;
19946;SDS011;10135;50.702;7.276;2024-01-10T14:57:24;20.03;;;10.50;;
19946;SDS011;10135;50.702;7.276;2024-01-10T14:59:25;20.93;;;10.60;;
19946;SDS011;10135;50.702;7.276;2024-01-10T15:01:26;21.07;;;10.40;;
19946;SDS011;10135;50.702;7.276;2024-01-10T15:03:26;21.03;;;10.73;;
19946;SDS011;10135;50.702;7.276;2024-01-10T15:05:27;19.33;;;10.57;;
19946;SDS011;10135;50.702;7.276;2024-01-10T15:07:28;22.50;;;10.47;;
19946;SDS011;10135;50.702;7.276;2024-01-10T15:09:28;19.20;;;10.13;;
19946;SDS011;10135;50.702;7.276;2024-01-10T15:11:29;18.50;;;10.03;;
19946;SDS011;10135;50.702;7.276;2024-01-10T15:13:29;23.17;;;10.60;;
19946;SDS011;10135;50.702;7.276;2024-01-10T15:15:30;23.53;;;10.90;;
19946;SDS011;10135;50.702;7.276;2024-01-10T15:17:32;23.90;;;10.70;;
19946;SDS011;10135;50.702;7.276;2024-01-10T15:19:37;19.37;;;10.00;;
19946;SDS011;10135;50.702;7.276;2024-01-10T15:21:38;22.10;;;9.60;;
19946;SDS011;10135;50.702;7.276;2024-01-10T15:23:39;20.53;;;10.20;;
19946;SDS011;10135;50.702;7.276;2024-01-10T15:25:41;22.43;;;9.97;;
19946;SDS011;10135;50.702;7.276;2024-01-10T15:27:59;22.63;;;9.93;;
19946;SDS011;10135;50.702;7.276;2024-01-10T15:30:03;21.37;;;10.77;;
19946;SDS011;10135;50.702;7.276;2024-01-10T15:32:05;23.13;;;9.90;;
19946;SDS011;10135;50.702;7.276;2024-01-10T15:34:07;21.30;;;10.57;;
19946;SDS011;10135;50.702;7.276;2024-01-10T15:36:08;21.47;;;10.23;;
19946;SDS011;10135;50.702;7.276;2024-01-10T15:38:09;25.57;;;11.10;;
19946;SDS011;10135;50.702;7.276;2024-01-10T15:40:10;30.80;;;14.37;;
19946;SDS011;10135;50.702;7.276;2024-01-10T15:42:11;25.87;;;13.03;;
19946;SDS011;10135;50.702;7.276;2024-01-10T15:44:13;22.67;;;11.93;;
19946;SDS011;10135;50.702;7.276;2024-01-10T15:46:20;26.13;;;13.53;;
19946;SDS011;10135;50.702;7.276;2024-01-10T15:48:20;40.33;;;21.43;;
19946;SDS011;10135;50.702;7.276;2024-01-10T15:50:21;52.13;;;25.00;;
19946;SDS011;10135;50.702;7.276;2024-01-10T15:52:21;41.03;;;18.93;;
19946;SDS011;10135;50.702;7.276;2024-01-10T15:54:27;32.47;;;16.53;;
19946;SDS011;10135;50.702;7.276;2024-01-10T15:56:28;31.87;;;14.60;;
19946;SDS011;10135;50.702;7.276;2024-01-10T15:58:30;24.80;;;12.63;;
19946;SDS011;10135;50.702;7.276;2024-01-10T16:00:32;26.40;;;13.23;;
19946;SDS011;10135;50.702;7.276;2024-01-10T16:02:33;27.13;;;13.07;;
19946;SDS011;10135;50.702;7.276;2024-01-10T16:04:35;26.77;;;12.17;;
19946;SDS011;10135;50.702;7.276;2024-01-10T16:06:35;22.33;;;11.33;;
19946;SDS011;10135;50.702;7.276;2024-01-10T16:08:38;25.10;;;11.87;;
19946;SDS011;10135;50.702;7.276;2024-01-10T16:10:42;21.57;;;10.87;;
19946;SDS011;10135;50.702;7.276;2024-01-10T16:12:42;22.03;;;11.33;;
19946;SDS011;10135;50.702;7.276;2024-01-10T16:14:43;24.47;;;11.20;;
19946;SDS011;10135;50.702;7.276;2024-01-10T16:16:44;22.87;;;10.70;;
19946;SDS011;10135;50.702;7.276;2024-01-10T16:18:44;25.03;;;11.93;;
19946;SDS011;10135;50.702;7.276;2024-01-10T16:31:53;27.80;;;13.13;;
19946;SDS011;10135;50.702;7.276;2024-01-10T16:33:57;29.80;;;13.27;;
19946;SDS011;10135;50.702;7.276;2024-01-10T16:36:08;32.30;;;12.53;;
19946;SDS011;10135;50.702;7.276;2024-01-10T16:38:11;30.20;;;13.20;;
19946;SDS011;10135;50.702;7.276;2024-01-10T16:40:20;26.73;;;12.70;;
19946;SDS011;10135;50.702;7.276;2024-01-10T16:42:24;23.23;;;11.07;;
19946;SDS011;10135;50.702;7.276;2024-01-10T16:44:27;29.00;;;12.00;;
19946;SDS011;10135;50.702;7.276;2024-01-10T16:46:28;24.10;;;11.30;;
19946;SDS011;10135;50.702;7.276;2024-01-10T16:48:30;29.00;;;12.53;;
19946;SDS011;10135;50.702;7.276;2024-01-10T16:53:21;28.13;;;12.03;;
19946;SDS011;10135;50.702;7.276;2024-01-10T16:55:22;31.57;;;12.77;;
19946;SDS011;10135;50.702;7.276;2024-01-10T16:57:37;23.37;;;11.50;;
19946;SDS011;10135;50.702;7.276;2024-01-10T16:59:43;25.23;;;10.93;;
19946;SDS011;10135;50.702;7.276;2024-01-10T17:01:44;29.73;;;11.50;;
19946;SDS011;10135;50.702;7.276;2024-01-10T17:03:45;29.27;;;11.43;;
19946;SDS011;10135;50.702;7.276;2024-01-10T17:05:46;28.00;;;11.10;;
19946;SDS011;10135;50.702;7.276;2024-01-10T17:07:47;20.27;;;10.10;;
19946;SDS011;10135;50.702;7.276;2024-01-10T17:09:47;22.23;;;10.83;;
19946;SDS011;10135;50.702;7.276;2024-01-10T17:11:51;24.83;;;11.57;;
19946;SDS011;10135;50.702;7.276;2024-01-10T17:13:51;23.53;;;10.80;;
19946;SDS011;10135;50.702;7.276;2024-01-10T17:15:52;25.83;;;10.80;;
19946;SDS011;10135;50.702;7.276;2024-01-10T17:17:53;27.23;;;11.23;;
19946;SDS011;10135;50.702;7.276;2024-01-10T17:19:53;18.83;;;10.20;;
19946;SDS011;10135;50.702;7.276;2024-01-10T17:21:54;21.47;;;10.87;;
19946;SDS011;10135;50.702;7.276;2024-01-10T17:23:55;24.13;;;10.40;;
19946;SDS011;10135;50.702;7.276;2024-01-10T17:25:55;21.03;;;10.50;;
19946;SDS011;10135;50.702;7.276;2024-01-10T17:27:56;23.83;;;10.37;;
19946;SDS011;10135;50.702;7.276;2024-01-10T17:29:57;23.90;;;11.00;;
19946;SDS011;10135;50.702;7.276;2024-01-10T17:31:58;21.23;;;10.67;;
19946;SDS011;10135;50.702;7.276;2024-01-10T17:33:59;22.00;;;11.37;;
19946;SDS011;10135;50.702;7.276;2024-01-10T17:36:01;22.97;;;11.07;;
19946;SDS011;10135;50.702;7.276;2024-01-10T17:38:03;26.13;;;11.47;;
19946;SDS011;10135;50.702;7.276;2024-01-10T17:40:05;23.07;;;11.07;;
19946;SDS011;10135;50.702;7.276;2024-01-10T17:42:06;27.57;;;11.20;;
19946;SDS011;10135;50.702;7.276;2024-01-10T17:44:07;22.57;;;10.43;;
19946;SDS011;10135;50.702;7.276;2024-01-10T17:46:08;23.93;;;11.97;;
19946;SDS011;10135;50.702;7.276;2024-01-10T17:48:08;24.13;;;12.10;;
19946;SDS011;10135;50.702;7.276;2024-01-10T17:50:09;25.53;;;12.73;;
19946;SDS011;10135;50.702;7.276;2024-01-10T17:52:10;28.40;;;13.20;;
19946;SDS011;10135;50.702;7.276;2024-01-10T17:54:11;23.00;;;12.23;;
19946;SDS011;10135;50.702;7.276;2024-01-10T17:56:11;25.87;;;11.13;;
19946;SDS011;10135;50.702;7.276;2024-01-10T17:58:12;25.27;;;11.37;;
19946;SDS011;10135;50.702;7.276;2024-01-10T18:00:13;23.57;;;11.43;;
19946;SDS011;10135;50.702;7.276;2024-01-10T18:02:15;26.67;;;11.80;;
19946;SDS011;10135;50.702;7.276;2024-01-10T18:04:16;28.10;;;11.77;;
19946;SDS011;10135;50.702;7.276;2024-01-10T18:06:16;23.97;;;11.60;;
19946;SDS011;10135;50.702;7.276;2024-01-10T18:08:17;26.07;;;11.80;;
19946;SDS011;10135;50.702;7.276;2024-01-10T18:10:18;22.83;;;11.33;;
19946;SDS011;10135;50.702;7.276;2024-01-10T18:12:18;22.57;;;11.93;;
19946;SDS011;10135;50.702;7.276;2024-01-10T18:14:20;27.37;;;12.30;;
19946;SDS011;10135;50.702;7.276;2024-01-10T18:16:21;25.80;;;12.27;;
19946;SDS011;10135;50.702;7.276;2024-01-10T18:18:22;25.00;;;12.27;;
19946;SDS011;10135;50.702;7.276;2024-01-10T18:20:22;26.53;;;11.93;;
19946;SDS011;10135;50.702;7.276;2024-01-10T18:22:23;26.70;;;12.30;;